Latest Coastal Weather Observations for Lockhart River

IDQ60701

Issued at 2:21 pm EST Wednesday 23 August 2017 (issued every 10 minutes, with the page automatically refreshed every 10 minutes)

About coastal observations | Map of coastal stations | Coastal observations for QLD | Marine services | Other Formats
Station Details ID: 028008 Name: LOCKHART RIVER AIRPORT Lat: -12.79 Lon: 143.30 Height: 18.5 m
Data from the previous 72 hours. | See also: Recent months at Lockhart River
Date/Time
EST
Temp
°C
Wind Pressure Rain since
9am
mm
Weather Cloud Vis
km
Sea
Height
m
Swell
Dir  Spd
kts
Gust
kts
hPa Trend Height
m
Period
s
Dir
23/02:00pm 27.6 ESE 14 22 1015.1 - 0.0 - Partly cloudy - - - - -
23/01:30pm 27.5 ESE 13 18 1015.5 - 0.0 - Partly cloudy - - - - -
23/01:00pm 27.8 ESE 13 19 1015.8 - 0.0 - Partly cloudy - - - - -
23/12:30pm 27.7 E 11 17 1016.1 - 0.0 - Partly cloudy - - - - -
23/12:00pm 26.2 ESE 13 18 1016.5 - 0.0 - Mostly cloudy - - - - -
23/11:30am 27.3 ESE 12 19 1016.7 - 0.0 - Partly cloudy - - - - -
23/11:00am 27.2 E 9 15 1017.0 - 0.0 - Partly cloudy - - - - -
23/10:30am 25.6 E 8 14 1017.3 - 0.0 - Partly cloudy - - - - -
23/10:00am 27.1 E 11 15 1017.3 - 0.0 - Partly cloudy - - - - -
23/09:30am 25.9 ESE 12 17 1017.3 - 0.0 - - - - - - -
23/09:00am 25.7 ESE 10 15 1017.1 - - - Mostly clear - - - - -
23/08:30am 24.0 SSE 5 7 1016.7 - - - - - - - - -
23/08:00am 21.8 CALM 0 2 1016.7 - - - - - - - - -
23/07:30am 19.9 CALM 0 0 1016.5 - - - Partly cloudy - - - - -
23/07:00am 18.7 CALM 0 0 1016.2 - - - - - - - - -
23/06:30am 18.7 WSW 1 4 1016.0 - - - - - - - - -
23/06:00am 19.6 CALM 0 3 1015.6 - - - Mostly clear - - - - -
23/05:30am 21.8 SE 6 7 1015.4 - - - - - - - - -
23/05:00am 22.5 SE 8 11 1015.3 - - - Partly cloudy - - - - -
23/04:30am 21.6 SE 7 8 1015.2 - - - - - - - - -
23/04:00am 21.7 SE 5 6 1015.2 - - - Partly cloudy - - - - -
23/03:30am 22.1 SE 6 9 1015.3 - - - - - - - - -
23/03:00am 22.3 SE 7 9 1015.3 - - - Mostly clear - - - - -
23/02:30am 22.0 SE 5 6 1015.5 - - - Partly cloudy - - - - -
23/02:00am 23.1 ESE 8 12 1015.7 - - - Partly cloudy - - - - -
23/01:30am 24.0 ESE 8 13 1016.1 - - - Partly cloudy - - - - -
23/01:00am 23.8 ESE 8 12 1016.4 - - - - - - - - -
23/12:00am 23.3 SE 8 11 1017.0 - 0.0 - Partly cloudy - - - - -
 
Date/Time
EST
Temp
°C
Wind Pressure Rain since
9am
mm
Weather Cloud Vis
km
Sea
Height
m
Swell
Dir  Spd
kts
Gust
kts
hPa Trend Height
m
Period
s
Dir
22/11:30pm 23.5 ESE 9 12 1016.9 - 0.0 - Partly cloudy - - - - -
22/11:00pm 23.7 SE 9 13 1017.0 - 0.0 - Partly cloudy - - - - -
22/10:30pm 23.8 ESE 9 13 1017.0 - 0.0 - Partly cloudy - - - - -
22/10:00pm 23.7 ESE 8 12 1016.9 - 0.0 - Partly cloudy - - - - -
22/09:30pm 23.4 ESE 7 12 1016.7 - 0.0 - Partly cloudy - - - - -
22/09:00pm 23.5 SE 8 11 1016.5 - 0.0 - Mostly cloudy - - - - -
22/08:30pm 23.3 SE 5 9 1016.2 - 0.0 - Partly cloudy - - - - -
22/08:00pm 23.1 SE 5 8 1016.0 - 0.0 - Partly cloudy - - - - -
22/07:30pm 23.4 ESE 6 8 1015.9 - 0.0 - Partly cloudy - - - - -
22/07:00pm 23.6 SE 7 9 1015.6 - 0.0 - Partly cloudy - - - - -
22/06:30pm 24.0 SE 7 10 1015.4 - 0.0 - Partly cloudy - - - - -
22/06:00pm 24.4 ESE 8 13 1015.0 - 0.0 - Mostly clear - - - - -
22/05:30pm 24.8 ESE 12 16 1014.7 - 0.0 - - - - - - -
22/05:00pm 25.4 ESE 11 17 1014.5 - 0.0 - Partly cloudy - - - - -
22/04:30pm 26.0 ESE 11 15 1014.3 - 0.0 - Partly cloudy - - - - -
22/04:00pm 26.3 ESE 11 17 1014.2 - 0.0 - Partly cloudy - - - - -
22/03:30pm 27.4 ESE 11 18 1014.1 - 0.0 - Partly cloudy - - - - -
22/03:00pm 26.8 ESE 12 19 1014.3 - 0.0 - Mostly clear - - - - -
22/02:30pm 27.2 ESE 11 18 1014.5 - 0.0 - Partly cloudy - - - - -
22/02:00pm 27.3 ESE 11 17 1014.8 - 0.0 - Partly cloudy - - - - -
22/01:30pm 27.7 ESE 13 20 1014.9 - 0.0 - - - - - - -
22/01:00pm 27.0 E 13 19 1015.3 - 0.0 - Partly cloudy - - - - -
22/12:30pm 26.4 E 12 19 1015.6 - 0.0 - Partly cloudy - - - - -
22/12:00pm 26.7 ESE 13 19 1016.2 - 0.0 - Mostly clear - - - - -
22/11:30am 26.0 ESE 14 20 1016.6 - 0.0 - Partly cloudy - - - - -
22/11:00am 25.8 ESE 14 20 1016.8 - 0.0 - Partly cloudy - - - - -
22/10:30am 26.0 ESE 12 19 1016.8 - 0.0 - Partly cloudy - - - - -
22/10:00am 25.6 ESE 11 19 1016.7 - 0.0 - Partly cloudy - - - - -
22/09:30am 25.2 SE 14 19 1016.7 - 0.0 - Partly cloudy - - - - -
22/09:00am 24.9 SE 11 15 1016.5 - 0.0 - Mostly cloudy - - - - -
22/08:30am 24.0 ESE 9 14 1016.5 - 0.0 - Partly cloudy - - - - -
22/08:00am 23.3 SE 11 16 1016.5 - 0.0 - Partly cloudy - - - - -
22/07:30am 22.1 S 6 8 1016.2 - 0.0 - Partly cloudy - - - - -
22/07:00am 21.2 S 5 7 1015.9 - 0.0 - Partly cloudy - - - - -
22/06:30am 21.6 SSE 5 7 1015.7 - 0.0 - Partly cloudy - - - - -
22/06:00am 22.1 SE 6 8 1015.4 - 0.0 - Cloudy - - - - -
22/05:30am 21.8 SE 7 9 1015.2 - 0.0 - Partly cloudy - - - - -
22/05:00am 22.3 SE 9 11 1015.0 - 0.0 - Partly cloudy - - - - -
22/04:30am 22.9 ESE 7 11 1014.9 - 0.0 - Partly cloudy - - - - -
22/04:00am 22.8 ESE 9 13 1015.1 - 0.0 - Cloudy - - - - -
22/03:30am 22.4 SE 9 13 1015.1 - 0.0 - Partly cloudy - - - - -
22/03:00am 22.5 SE 8 11 1015.1 - 0.0 - Partly cloudy - - - - -
22/02:30am 22.6 SE 9 12 1015.4 - 0.0 - Partly cloudy - - - - -
22/02:00am 22.7 ESE 10 14 1015.6 - 0.0 - Partly cloudy - - - - -
22/01:30am 22.8 SE 10 15 1015.8 - 0.0 - Partly cloudy - - - - -
22/01:00am 23.3 SE 9 15 1016.1 - 0.0 - Partly cloudy - - - - -
22/12:30am 23.2 ESE 9 14 1016.3 - 0.0 - Partly cloudy - - - - -
22/12:00am 23.1 ESE 10 15 1016.6 - 0.0 - Partly cloudy - - - - -
 
Date/Time
EST
Temp
°C
Wind Pressure Rain since
9am
mm
Weather Cloud Vis
km
Sea
Height
m
Swell
Dir  Spd
kts
Gust
kts
hPa Trend Height
m
Period
s
Dir
21/11:30pm 23.0 ESE 9 14 1016.7 - 0.0 - Partly cloudy - - - - -
21/11:00pm 23.3 ESE 10 14 1016.8 - 0.0 - Partly cloudy - - - - -
21/10:30pm 23.4 ESE 10 15 1016.8 - 0.0 - Partly cloudy - - - - -
21/10:00pm 23.6 ESE 10 16 1016.9 - 0.0 - Partly cloudy - - - - -
21/09:30pm 23.5 ESE 11 15 1016.8 - 0.0 - Partly cloudy - - - - -
21/09:00pm 23.4 ESE 9 15 1016.6 - 0.0 - Cloudy - - - - -
21/08:30pm 23.4 SE 9 16 1016.2 - 0.0 - Partly cloudy - - - - -
21/08:00pm 23.2 SE 9 14 1015.7 - 0.0 - Partly cloudy - - - - -
21/07:30pm 22.7 SE 7 8 1015.3 - 0.0 - Partly cloudy - - - - -
21/07:00pm 23.0 SE 7 9 1015.0 - 0.0 - Partly cloudy - - - - -
21/06:30pm 23.4 ESE 9 15 1014.6 - 0.0 - Partly cloudy - - - - -
21/06:00pm 24.0 SE 13 18 1014.3 - 0.0 - Cloudy - - - - -
21/05:30pm 25.1 SE 12 19 1014.1 - 0.0 - Partly cloudy - - - - -
21/05:00pm 25.0 SE 14 19 1013.9 - 0.0 - Partly cloudy - - - - -
21/04:30pm 26.3 ESE 14 20 1013.8 - 0.0 - Partly cloudy - - - - -
21/04:00pm 25.7 ESE 13 18 1013.6 - 0.0 - Partly cloudy - - - - -
21/03:30pm 26.7 SE 15 21 1013.4 - 0.0 - Partly cloudy - - - - -
21/03:00pm 25.6 ESE 13 19 1013.4 - 0.0 - Cloudy - - - - -
21/02:30pm 25.7 ESE 11 17 1013.6 - 0.0 - Partly cloudy - - - - -
21/02:00pm 26.0 E 13 19 1013.9 - 0.0 - Partly cloudy - - - - -
21/01:30pm 27.0 ESE 14 23 1014.3 - 0.0 - Partly cloudy - - - - -
21/01:00pm 27.0 ESE 12 21 1014.6 - 0.0 - Partly cloudy - - - - -
21/12:30pm 26.0 ESE 13 19 1014.9 - 0.0 - Partly cloudy - - - - -
21/12:00pm 26.1 ESE 11 17 1015.3 - 0.0 - Cloudy - - - - -
21/11:30am 26.1 E 12 18 1015.7 - 0.0 - Partly cloudy - - - - -
21/11:00am 27.3 ESE 11 19 1016.0 - 0.0 - Partly cloudy - - - - -
21/10:30am 26.9 ESE 12 21 1016.3 - 0.0 - Partly cloudy - - - - -
21/10:00am 26.4 ESE 13 19 1016.3 - 0.0 - Partly cloudy - - - - -
21/09:30am 24.8 ESE 11 17 1016.2 - 0.0 - Partly cloudy - - - - -
21/09:00am 24.2 ESE 10 17 1015.9 - 0.0 - Cloudy - - - - -
21/08:30am 24.2 ESE 10 14 1015.4 - 0.0 - Partly cloudy - - - - -
21/08:00am 24.1 ESE 11 16 1015.2 - 0.0 - Partly cloudy - - - - -
21/07:30am 23.6 ESE 9 13 1014.9 - 0.0 - Partly cloudy - - - - -
21/07:00am 23.1 SE 11 14 1014.6 - 0.0 - Partly cloudy - - - - -
21/06:30am 22.7 SE 8 11 1014.2 - 0.0 - Partly cloudy - - - - -
21/06:00am 22.9 SE 8 12 1014.1 - 0.0 - Partly cloudy - - - - -
21/05:30am 22.9 ESE 8 11 1013.7 - 0.0 - Partly cloudy - - - - -
21/05:00am 22.9 SE 9 13 1013.6 - 0.0 - Partly cloudy - - - - -
21/04:30am 23.0 SE 9 13 1013.5 - 0.0 - Partly cloudy - - - - -
21/04:00am 23.1 SE 9 13 1013.5 - 0.0 - Partly cloudy - - - - -
21/03:30am 22.5 SE 8 12 1013.5 - 0.0 - Partly cloudy - - - - -
21/03:00am 19.8 SSW 2 5 1013.8 - 0.0 - Cloudy - - - - -
21/02:30am 20.1 SSW 2 4 1013.9 - 0.0 - Partly cloudy - - - - -
21/02:00am 20.7 SSW 4 6 1014.2 - 0.0 - Partly cloudy - - - - -
21/01:30am 22.3 SE 6 7 1014.3 - 0.0 - Partly cloudy - - - - -
21/01:00am 22.2 SE 6 9 1014.5 - 0.0 - Partly cloudy - - - - -
21/12:30am 22.7 SE 8 13 1014.7 - 0.0 - Partly cloudy - - - - -
21/12:00am 23.1 SE 9 14 1015.0 - 0.0 - Mostly clear - - - - -
 
Date/Time
EST
Temp
°C
Wind Pressure Rain since
9am
mm
Weather Cloud Vis
km
Sea
Height
m
Swell
Dir  Spd
kts
Gust
kts
hPa Trend Height
m
Period
s
Dir
20/11:30pm 23.3 SE 8 13 1015.0 - 0.0 - Partly cloudy - - - - -
20/11:00pm 23.4 SE 9 11 1015.2 - 0.0 - Partly cloudy - - - - -
20/10:30pm 23.6 ESE 9 13 1015.3 - 0.0 - Partly cloudy - - - - -
20/10:00pm 23.5 SE 7 13 1015.2 - 0.0 - Partly cloudy - - - - -
20/09:30pm 23.3 SE 8 11 1015.2 - 0.0 - - - - - - -
20/09:00pm 23.7 SE 8 12 1015.0 - 0.0 - - - - - - -
20/08:30pm 23.9 SE 10 14 1014.9 - 0.0 - Partly cloudy - - - - -
20/08:00pm 24.4 SE 10 15 1014.5 - 0.0 - Partly cloudy - - - - -
20/07:30pm 24.5 ESE 11 17 1014.2 - 0.0 - Partly cloudy - - - - -
20/07:00pm 24.4 SE 8 11 1013.8 - 0.0 - Partly cloudy - - - - -
20/06:30pm 24.4 ESE 9 14 1013.5 - 0.0 - Partly cloudy - - - - -
20/06:00pm 24.9 ESE 9 14 1013.4 - 0.0 - Mostly clear - - - - -
20/05:30pm 26.0 ESE 12 17 1013.3 - 0.0 - Partly cloudy - - - - -
20/05:00pm 26.3 SE 13 21 1013.2 - 0.0 - - - - - - -
20/04:30pm 24.8 ESE 12 19 1013.0 - 0.0 - Partly cloudy - - - - -
20/04:00pm 27.2 SE 13 21 1012.9 - 0.0 - Partly cloudy - - - - -
20/03:30pm 27.5 ESE 13 19 1013.0 - 0.0 - Partly cloudy - - - - -
20/03:00pm 28.4 ESE 14 20 1013.0 - 0.0 - Mostly clear - - - - -
20/02:30pm 28.2 ESE 14 20 1013.4 - 0.0 - Partly cloudy - - - - -

Other Formats:

Comma delimited format used in spreadsheet applications
http://www.bom.gov.au/fwo/IDQ60701/IDQ60701.94186.axf

JavaScript Object Notation format (JSON) in row-major order
http://www.bom.gov.au/fwo/IDQ60701/IDQ60701.94186.json